createdAt,value
2022-10-08T00:00:44.266Z,11.80
2022-10-08T00:01:46.525Z,10.90
2022-10-08T00:02:48.973Z,11.87
2022-10-08T00:03:53.382Z,10.90
2022-10-08T00:04:56.083Z,11.27
2022-10-08T00:06:12.567Z,11.97
2022-10-08T00:07:14.759Z,11.23
2022-10-08T00:08:16.953Z,10.80
2022-10-08T00:09:21.460Z,11.60
2022-10-08T00:10:23.652Z,11.90
2022-10-08T00:11:28.709Z,10.90
2022-10-08T00:12:30.936Z,11.77
2022-10-08T00:13:40.985Z,11.73
2022-10-08T00:14:43.525Z,11.47
2022-10-08T00:15:46.428Z,11.30
2022-10-08T00:16:49.389Z,11.73
2022-10-08T00:17:51.779Z,11.50
2022-10-08T00:19:01.453Z,11.40
2022-10-08T00:20:03.796Z,11.43
2022-10-08T00:21:17.608Z,11.90
2022-10-08T00:22:20.360Z,12.33
2022-10-08T00:23:24.350Z,11.43
2022-10-08T00:24:27.718Z,12.33
2022-10-08T00:25:29.924Z,11.83
2022-10-08T00:26:42.633Z,11.80
2022-10-08T00:27:45.951Z,12.10
2022-10-08T00:28:48.608Z,11.47
2022-10-08T00:29:52.349Z,11.70
2022-10-08T00:30:54.546Z,11.83
2022-10-08T00:31:57.349Z,11.50
2022-10-08T00:33:00.124Z,11.83
2022-10-08T00:34:05.988Z,12.00
2022-10-08T00:35:08.762Z,12.10
2022-10-08T00:36:13.214Z,12.07
2022-10-08T00:37:15.607Z,12.27
2022-10-08T00:38:17.920Z,11.97
2022-10-08T00:39:22.684Z,11.43
2022-10-08T00:40:25.496Z,12.00
2022-10-08T00:41:33.407Z,11.67
2022-10-08T00:42:35.751Z,12.50
2022-10-08T00:43:44.273Z,12.90
2022-10-08T00:44:59.068Z,12.20
2022-10-08T00:46:01.872Z,12.57
2022-10-08T00:47:04.373Z,11.83
2022-10-08T00:48:06.601Z,12.30
2022-10-08T00:49:10.480Z,12.40
2022-10-08T00:50:34.426Z,13.10
2022-10-08T00:51:39.079Z,12.27
2022-10-08T00:52:47.681Z,12.27
2022-10-08T00:53:50.957Z,12.37
2022-10-08T00:54:53.181Z,12.43
2022-10-08T00:55:56.733Z,12.07
2022-10-08T00:56:59.344Z,12.50
2022-10-08T00:58:28.407Z,12.63
2022-10-08T00:59:30.609Z,12.17
2022-10-08T01:00:33.470Z,13.27
2022-10-08T01:01:36.152Z,12.73
2022-10-08T01:02:38.523Z,12.37
2022-10-08T01:03:40.839Z,13.03
2022-10-08T01:04:44.293Z,12.70
2022-10-08T01:05:55.720Z,12.50
2022-10-08T01:07:04.492Z,12.83
2022-10-08T01:08:32.490Z,13.20
2022-10-08T01:09:38.145Z,12.17
2022-10-08T01:11:17.489Z,13.30
2022-10-08T01:13:00.218Z,12.50
2022-10-08T01:14:12.909Z,12.50
2022-10-08T01:15:46.315Z,12.33
2022-10-08T01:16:54.751Z,12.83
2022-10-08T01:18:18.485Z,13.37
2022-10-08T01:19:42.766Z,11.90
2022-10-08T01:20:57.469Z,12.87
2022-10-08T01:22:18.399Z,12.40
2022-10-08T01:23:58.868Z,13.10
2022-10-08T01:25:33.535Z,12.20
2022-10-08T01:27:01.410Z,12.70
2022-10-08T01:28:12.759Z,13.10
2022-10-08T01:29:37.586Z,12.60
2022-10-08T01:30:50.431Z,12.27
2022-10-08T01:32:07.347Z,11.80
2022-10-08T01:33:23.127Z,12.27
2022-10-08T01:34:37.344Z,12.80
2022-10-08T01:35:45.283Z,13.67
2022-10-08T01:36:51.430Z,12.73
2022-10-08T01:37:56.168Z,12.50
2022-10-08T01:39:04.160Z,12.30
2022-10-08T01:40:13.846Z,12.60
2022-10-08T01:41:18.794Z,12.50
2022-10-08T01:42:23.945Z,12.27
2022-10-08T01:43:32.815Z,12.63
2022-10-08T01:44:40.168Z,12.17
2022-10-08T01:45:52.078Z,12.50
2022-10-08T01:47:00.726Z,12.80
2022-10-08T01:48:08.270Z,12.70
2022-10-08T01:49:17.860Z,12.10
2022-10-08T01:50:28.314Z,12.70
2022-10-08T01:51:47.285Z,13.13
2022-10-08T01:52:55.124Z,12.33
2022-10-08T01:53:57.466Z,12.50
2022-10-08T01:55:03.509Z,12.73
2022-10-08T01:56:10.700Z,12.43
2022-10-08T01:57:13.984Z,12.23
2022-10-08T01:58:43.240Z,13.13
2022-10-08T01:59:55.212Z,12.17
2022-10-08T02:01:04.334Z,12.13
2022-10-08T02:02:21.620Z,12.27
2022-10-08T02:03:23.950Z,12.10
2022-10-08T02:04:35.115Z,11.83
2022-10-08T02:05:44.292Z,12.17
2022-10-08T02:06:52.803Z,12.37
2022-10-08T02:07:55.447Z,12.03
2022-10-08T02:08:57.872Z,12.67
2022-10-08T02:10:08.368Z,12.57
2022-10-08T02:11:10.869Z,12.90
2022-10-08T02:12:14.543Z,11.80
2022-10-08T02:13:16.846Z,12.37
2022-10-08T02:14:24.070Z,11.93
2022-10-08T02:15:47.971Z,12.33
2022-10-08T02:16:58.368Z,11.87
2022-10-08T02:18:09.109Z,12.10
2022-10-08T02:19:26.796Z,12.40
2022-10-08T02:20:53.475Z,12.37
2022-10-08T02:21:58.216Z,12.20
2022-10-08T02:23:08.356Z,12.07
2022-10-08T02:24:17.149Z,12.57
2022-10-08T02:25:30.809Z,12.07
2022-10-08T02:26:51.197Z,12.40
2022-10-08T02:28:00.933Z,11.87
2022-10-08T02:29:13.722Z,12.13
2022-10-08T02:30:17.028Z,12.33
2022-10-08T02:31:26.191Z,11.67
2022-10-08T02:32:52.986Z,12.43
2022-10-08T02:34:24.033Z,11.90
2022-10-08T02:35:37.499Z,12.10
2022-10-08T02:36:43.035Z,11.50
2022-10-08T02:38:00.080Z,12.20
2022-10-08T02:39:05.772Z,11.40
2022-10-08T02:40:11.110Z,11.87
2022-10-08T02:41:15.592Z,12.57
2022-10-08T02:42:22.673Z,11.90
2022-10-08T02:43:30.797Z,12.07
2022-10-08T02:44:39.030Z,11.90
2022-10-08T02:45:49.110Z,11.87
2022-10-08T02:46:55.555Z,12.17
2022-10-08T02:48:07.394Z,12.20
2022-10-08T02:49:13.225Z,11.30
2022-10-08T02:50:20.813Z,11.43
2022-10-08T02:51:25.130Z,11.27
2022-10-08T02:52:32.470Z,10.90
2022-10-08T02:53:37.999Z,11.80
2022-10-08T02:54:44.373Z,12.03
2022-10-08T02:56:05.282Z,11.47
2022-10-08T02:57:29.384Z,12.13
2022-10-08T02:58:32.471Z,11.43
2022-10-08T02:59:35.612Z,12.00
2022-10-08T03:00:46.819Z,11.80
2022-10-08T03:02:00.756Z,11.27
2022-10-08T03:03:09.952Z,11.13
2022-10-08T03:04:14.937Z,11.47
2022-10-08T03:05:19.815Z,10.93
2022-10-08T03:06:22.206Z,11.63
2022-10-08T03:07:28.411Z,11.13
2022-10-08T03:08:31.667Z,11.30
2022-10-08T03:09:41.421Z,11.40
2022-10-08T03:10:44.719Z,10.60
2022-10-08T03:11:47.315Z,11.23
2022-10-08T03:12:50.216Z,10.90
2022-10-08T03:13:58.417Z,11.30
2022-10-08T03:15:01.384Z,11.50
2022-10-08T03:16:07.483Z,10.83
2022-10-08T03:17:14.361Z,11.13
2022-10-08T03:18:17.143Z,11.50
2022-10-08T03:19:20.065Z,10.90
2022-10-08T03:20:23.403Z,11.03
2022-10-08T03:21:28.263Z,11.00
2022-10-08T03:22:31.490Z,10.57
2022-10-08T03:23:33.683Z,10.87
2022-10-08T03:24:36.586Z,10.73
2022-10-08T03:25:38.786Z,11.00
2022-10-08T03:26:42.107Z,11.30
2022-10-08T03:27:44.358Z,10.67
2022-10-08T03:28:51.962Z,11.07
2022-10-08T03:29:57.334Z,11.30
2022-10-08T03:31:04.890Z,11.73
2022-10-08T03:32:07.165Z,11.37
2022-10-08T03:33:09.388Z,11.07
2022-10-08T03:34:11.626Z,11.77
2022-10-08T03:35:13.831Z,11.57
2022-10-08T03:36:16.040Z,11.33
2022-10-08T03:37:18.666Z,11.43
2022-10-08T03:38:23.136Z,11.57
2022-10-08T03:39:25.520Z,11.47
2022-10-08T03:40:27.799Z,12.10
2022-10-08T03:41:31.553Z,11.80
2022-10-08T03:42:33.749Z,11.43
2022-10-08T03:43:36.425Z,10.03
2022-10-08T03:44:38.688Z,11.33
2022-10-08T03:45:50.233Z,11.20
2022-10-08T03:46:52.557Z,11.10
2022-10-08T03:47:55.316Z,10.67
2022-10-08T03:48:57.531Z,10.97
2022-10-08T03:49:59.840Z,11.33
2022-10-08T03:51:06.007Z,11.47
2022-10-08T03:52:08.473Z,11.40
2022-10-08T03:53:10.692Z,11.47
2022-10-08T03:54:12.907Z,11.10
2022-10-08T03:55:15.485Z,11.43
2022-10-08T03:56:21.018Z,11.00
2022-10-08T03:57:23.418Z,10.90
2022-10-08T03:58:25.651Z,11.37
2022-10-08T03:59:28.093Z,11.40
2022-10-08T04:00:33.325Z,10.83
2022-10-08T04:01:35.688Z,10.93
2022-10-08T04:02:40.921Z,11.23
2022-10-08T04:03:45.386Z,11.70
2022-10-08T04:04:47.624Z,11.33
2022-10-08T04:05:50.635Z,11.00
2022-10-08T04:06:52.901Z,11.60
2022-10-08T04:07:55.118Z,10.77
2022-10-08T04:09:01.341Z,11.73
2022-10-08T04:10:03.848Z,11.30
2022-10-08T04:11:11.011Z,10.97
2022-10-08T04:12:13.179Z,11.70
2022-10-08T04:13:16.481Z,11.20
2022-10-08T04:14:18.685Z,10.77
2022-10-08T04:15:24.023Z,10.93
2022-10-08T04:16:26.286Z,11.43
2022-10-08T04:17:31.514Z,11.20
2022-10-08T04:18:34.181Z,11.17
2022-10-08T04:19:36.353Z,11.73
2022-10-08T04:20:45.093Z,10.80
2022-10-08T04:21:47.363Z,11.40
2022-10-08T04:22:49.943Z,11.30
2022-10-08T04:23:52.374Z,11.10
2022-10-08T04:24:54.592Z,11.03
2022-10-08T04:25:57.051Z,11.10
2022-10-08T04:26:59.424Z,11.40
2022-10-08T04:28:04.657Z,11.10
2022-10-08T04:29:17.553Z,11.27
2022-10-08T04:30:24.119Z,11.43
2022-10-08T04:31:26.394Z,10.33
2022-10-08T04:32:28.638Z,10.93
2022-10-08T04:33:32.755Z,10.57
2022-10-08T04:34:34.970Z,11.40
2022-10-08T04:35:40.944Z,11.23
2022-10-08T04:36:43.386Z,10.63
2022-10-08T04:37:45.656Z,10.63
2022-10-08T04:38:48.686Z,11.20
2022-10-08T04:39:50.952Z,11.00
2022-10-08T04:41:04.489Z,10.30
2022-10-08T04:42:06.784Z,10.70
2022-10-08T04:43:09.066Z,10.90
2022-10-08T04:44:11.242Z,11.47
2022-10-08T04:45:13.406Z,10.67
2022-10-08T04:46:18.728Z,10.90
2022-10-08T04:47:20.970Z,10.53
2022-10-08T04:48:25.534Z,10.67
2022-10-08T04:49:29.887Z,10.20
2022-10-08T04:50:32.080Z,11.13
2022-10-08T04:51:34.337Z,10.83
2022-10-08T04:52:36.619Z,11.77
2022-10-08T04:53:39.033Z,10.17
2022-10-08T04:54:41.216Z,11.03
2022-10-08T04:55:43.388Z,10.27
2022-10-08T04:56:45.607Z,10.40
2022-10-08T04:57:47.800Z,11.03
2022-10-08T04:58:52.823Z,10.17
2022-10-08T05:00:17.559Z,10.60
2022-10-08T05:01:19.747Z,10.27
2022-10-08T05:02:22.033Z,9.63
2022-10-08T05:03:24.339Z,10.30
2022-10-08T05:04:26.599Z,10.73
2022-10-08T05:05:28.793Z,10.20
2022-10-08T05:06:31.924Z,10.60
2022-10-08T05:07:34.263Z,9.73
2022-10-08T05:08:37.240Z,10.80
2022-10-08T05:09:39.431Z,10.07
2022-10-08T05:10:48.996Z,10.27
2022-10-08T05:11:51.720Z,10.93
2022-10-08T05:12:54.994Z,11.10
2022-10-08T05:13:59.148Z,10.67
2022-10-08T05:15:01.381Z,10.53
2022-10-08T05:16:11.155Z,9.97
2022-10-08T05:17:13.435Z,10.23
2022-10-08T05:18:18.216Z,10.07
2022-10-08T05:19:20.419Z,10.23
2022-10-08T05:20:22.665Z,10.33
2022-10-08T05:21:28.004Z,10.53
2022-10-08T05:22:33.052Z,10.40
2022-10-08T05:23:36.217Z,9.97
2022-10-08T05:24:38.430Z,10.63
2022-10-08T05:25:40.729Z,10.03
2022-10-08T05:26:59.243Z,9.87
2022-10-08T05:28:03.740Z,10.40
2022-10-08T05:29:06.712Z,10.97
2022-10-08T05:30:11.784Z,10.63
2022-10-08T05:31:15.636Z,10.80
2022-10-08T05:32:17.895Z,10.63
2022-10-08T05:33:20.133Z,10.03
2022-10-08T05:34:22.509Z,10.50
2022-10-08T05:35:24.761Z,11.00
2022-10-08T05:36:29.766Z,10.10
2022-10-08T05:37:31.998Z,10.60
2022-10-08T05:38:35.489Z,10.40
2022-10-08T05:39:37.767Z,10.23
2022-10-08T05:40:39.988Z,10.63
2022-10-08T05:41:42.295Z,10.40
2022-10-08T05:42:44.793Z,10.60
2022-10-08T05:43:48.244Z,9.53
2022-10-08T05:44:50.504Z,9.83
2022-10-08T05:45:55.772Z,9.77
2022-10-08T05:46:58.553Z,9.70
2022-10-08T05:48:00.830Z,9.43
2022-10-08T05:49:05.250Z,9.80
2022-10-08T05:50:07.964Z,10.20
2022-10-08T05:51:12.699Z,8.87
2022-10-08T05:52:14.921Z,9.40
2022-10-08T05:53:17.095Z,9.50
2022-10-08T05:54:19.594Z,9.97
2022-10-08T05:55:21.891Z,9.80
2022-10-08T05:56:25.335Z,10.27
2022-10-08T05:57:30.434Z,9.63
2022-10-08T05:58:35.115Z,9.33
2022-10-08T05:59:37.370Z,9.63
2022-10-08T06:00:39.627Z,10.10
2022-10-08T06:01:41.993Z,10.00
2022-10-08T06:02:44.648Z,10.50
2022-10-08T06:03:59.933Z,10.18
2022-10-08T06:05:04.731Z,9.77
2022-10-08T06:06:11.846Z,10.07
2022-10-08T06:07:14.010Z,10.57
2022-10-08T06:08:16.264Z,12.13
2022-10-08T06:09:23.662Z,12.60
2022-10-08T06:10:26.451Z,13.38
2022-10-08T06:11:30.104Z,13.57
2022-10-08T06:12:34.561Z,12.13
2022-10-08T06:13:36.846Z,10.97
2022-10-08T06:14:39.062Z,11.17
2022-10-08T06:15:41.242Z,10.18
2022-10-08T06:16:43.879Z,9.77
2022-10-08T06:17:46.089Z,10.02
2022-10-08T06:18:48.572Z,9.70
2022-10-08T06:19:50.811Z,9.90
2022-10-08T06:20:55.539Z,9.90
2022-10-08T06:21:57.735Z,9.98
2022-10-08T06:23:02.763Z,10.27
2022-10-08T06:24:07.625Z,10.07
2022-10-08T06:25:09.980Z,9.97
2022-10-08T06:26:12.322Z,10.27
2022-10-08T06:27:14.544Z,9.80
2022-10-08T06:28:17.209Z,10.48
2022-10-08T06:29:22.650Z,11.03
2022-10-08T06:30:24.927Z,11.13
2022-10-08T06:31:27.569Z,10.93
2022-10-08T06:32:29.869Z,10.98
2022-10-08T06:33:32.100Z,10.60
2022-10-08T06:34:34.321Z,10.07
2022-10-08T06:35:37.378Z,10.50
2022-10-08T06:36:40.182Z,9.75
2022-10-08T06:37:48.498Z,10.00
2022-10-08T06:38:52.184Z,10.27
2022-10-08T06:39:54.371Z,10.27
2022-10-08T06:41:00.329Z,10.85
2022-10-08T06:42:02.558Z,10.93
2022-10-08T06:43:17.512Z,10.60
2022-10-08T06:44:19.809Z,10.80
2022-10-08T06:45:22.048Z,10.63
2022-10-08T06:46:24.342Z,10.68
2022-10-08T06:47:26.608Z,10.60
2022-10-08T06:48:28.879Z,11.35
2022-10-08T06:49:31.189Z,10.45
2022-10-08T06:50:36.856Z,11.10
2022-10-08T06:51:39.287Z,10.85
2022-10-08T06:52:41.608Z,10.15
2022-10-08T06:53:44.882Z,10.77
2022-10-08T06:54:47.092Z,10.32
2022-10-08T06:55:49.296Z,10.45
2022-10-08T06:56:51.496Z,9.73
2022-10-08T06:57:53.719Z,10.70
2022-10-08T06:58:55.989Z,9.57
2022-10-08T06:59:59.145Z,9.65
2022-10-08T07:01:09.975Z,8.90
2022-10-08T07:02:12.342Z,8.57
2022-10-08T07:03:14.568Z,8.02
2022-10-08T07:04:16.743Z,7.38
2022-10-08T07:05:19.223Z,7.05
2022-10-08T07:06:22.012Z,6.93
2022-10-08T07:07:24.239Z,6.90
2022-10-08T07:08:26.608Z,6.32
2022-10-08T07:09:29.156Z,6.13
2022-10-08T07:10:33.698Z,6.07
2022-10-08T07:11:36.088Z,5.63
2022-10-08T07:12:38.596Z,5.70
2022-10-08T07:13:41.423Z,5.60
2022-10-08T07:14:43.805Z,5.50
2022-10-08T07:15:46.070Z,5.70
2022-10-08T07:16:48.381Z,5.60
2022-10-08T07:17:51.054Z,5.68
2022-10-08T07:18:56.151Z,5.35
2022-10-08T07:19:58.546Z,5.57
2022-10-08T07:21:00.830Z,5.30
2022-10-08T07:23:19.117Z,5.30
2022-10-08T07:24:21.285Z,5.07
2022-10-08T07:25:23.484Z,5.10
2022-10-08T07:26:28.182Z,5.00
2022-10-08T07:27:30.375Z,4.75
2022-10-08T07:28:36.946Z,4.65
2022-10-08T07:29:39.349Z,4.63
2022-10-08T07:30:44.546Z,4.68
2022-10-08T07:31:47.375Z,4.75
2022-10-08T07:32:55.686Z,4.13
2022-10-08T07:33:59.162Z,4.30
2022-10-08T07:35:01.419Z,4.50
2022-10-08T07:36:15.151Z,4.22
2022-10-08T07:37:17.701Z,4.40
2022-10-08T07:38:19.928Z,4.55
2022-10-08T07:39:22.364Z,4.40
2022-10-08T07:40:25.067Z,4.75
2022-10-08T07:41:29.244Z,4.15
2022-10-08T07:42:32.882Z,4.40
2022-10-08T07:43:36.151Z,4.20
2022-10-08T07:44:38.364Z,4.28
2022-10-08T07:45:45.105Z,4.05
2022-10-08T07:46:50.840Z,4.05
2022-10-08T07:47:53.083Z,3.72
2022-10-08T07:48:59.504Z,4.38
2022-10-08T07:50:01.810Z,3.80
2022-10-08T07:51:15.712Z,3.30
2022-10-08T07:52:17.904Z,3.13
2022-10-08T07:53:20.217Z,3.65
2022-10-08T07:54:22.659Z,3.33
2022-10-08T07:55:24.864Z,3.70
2022-10-08T07:56:27.295Z,3.53
2022-10-08T07:57:29.495Z,3.65
2022-10-08T07:58:32.006Z,3.33
2022-10-08T07:59:34.199Z,3.55
2022-10-08T08:00:39.747Z,3.60
2022-10-08T08:01:43.475Z,3.20
2022-10-08T08:02:48.495Z,3.30
2022-10-08T08:03:55.621Z,3.70
2022-10-08T08:04:57.899Z,3.55
2022-10-08T08:06:26.571Z,3.35
2022-10-08T08:07:29.295Z,3.55
2022-10-08T08:08:31.770Z,3.30
2022-10-08T08:09:34.024Z,3.40
2022-10-08T08:10:36.209Z,3.30
2022-10-08T08:11:40.138Z,3.22
2022-10-08T08:12:44.783Z,3.25
2022-10-08T08:13:47.833Z,3.00
2022-10-08T08:14:50.011Z,3.30
2022-10-08T08:15:59.656Z,3.67
2022-10-08T08:17:02.100Z,3.25
2022-10-08T08:18:04.514Z,3.63
2022-10-08T08:19:07.368Z,3.35
2022-10-08T08:20:10.054Z,3.10
2022-10-08T08:21:17.780Z,2.88
2022-10-08T08:22:20.141Z,3.10
2022-10-08T08:23:22.389Z,3.50
2022-10-08T08:24:24.675Z,3.28
2022-10-08T08:25:27.748Z,3.05
2022-10-08T08:26:33.251Z,3.40
2022-10-08T08:27:35.598Z,3.60
2022-10-08T08:28:37.964Z,3.13
2022-10-08T08:29:40.624Z,3.08
2022-10-08T08:30:42.800Z,3.08
2022-10-08T08:31:47.584Z,3.25
2022-10-08T08:32:50.127Z,3.58
2022-10-08T08:33:55.145Z,3.40
2022-10-08T08:34:57.431Z,3.35
2022-10-08T08:35:59.711Z,2.92
2022-10-08T08:37:01.926Z,2.95
2022-10-08T08:38:04.142Z,3.10
2022-10-08T08:39:08.421Z,3.53
2022-10-08T08:40:11.006Z,3.42
2022-10-08T08:41:31.226Z,3.13
2022-10-08T08:42:50.887Z,2.92
2022-10-08T08:44:01.807Z,3.22
2022-10-08T08:45:47.677Z,3.38
2022-10-08T08:47:01.065Z,3.08
2022-10-08T08:48:23.710Z,2.88
2022-10-08T08:49:43.897Z,2.95
2022-10-08T08:50:49.015Z,2.83
2022-10-08T08:51:53.410Z,2.80
2022-10-08T08:52:56.274Z,3.28
2022-10-08T08:54:00.040Z,3.00
2022-10-08T08:55:02.405Z,3.10
2022-10-08T08:56:08.274Z,2.92
2022-10-08T08:57:32.282Z,2.63
2022-10-08T08:58:49.221Z,3.13
2022-10-08T08:59:54.930Z,2.83
2022-10-08T09:01:06.652Z,2.90
2022-10-08T09:02:23.415Z,2.78
2022-10-08T09:03:35.303Z,3.20
2022-10-08T09:04:45.420Z,3.20
2022-10-08T09:05:52.929Z,2.72
2022-10-08T09:06:58.509Z,3.08
2022-10-08T09:08:19.000Z,3.03
2022-10-08T09:09:37.892Z,2.97
2022-10-08T09:10:48.527Z,2.92
2022-10-08T09:11:51.166Z,2.90
2022-10-08T09:12:54.152Z,3.10
2022-10-08T09:14:14.810Z,2.97
2022-10-08T09:15:21.614Z,2.92
2022-10-08T09:16:28.174Z,2.65
2022-10-08T09:17:37.247Z,3.00
2022-10-08T09:18:50.301Z,2.92
2022-10-08T09:19:52.643Z,3.05
2022-10-08T09:20:54.905Z,2.92
2022-10-08T09:21:57.161Z,2.78
2022-10-08T09:22:59.681Z,2.75
2022-10-08T09:24:03.083Z,3.10
2022-10-08T09:25:15.482Z,2.85
2022-10-08T09:26:21.666Z,2.65
2022-10-08T09:27:25.036Z,2.92
2022-10-08T09:28:44.741Z,3.15
2022-10-08T09:29:47.186Z,2.80
2022-10-08T09:30:50.362Z,2.70
2022-10-08T09:31:52.860Z,2.80
2022-10-08T09:32:57.615Z,3.00
2022-10-08T09:34:13.353Z,3.30
2022-10-08T09:35:16.032Z,3.03
2022-10-08T09:36:29.371Z,3.30
2022-10-08T09:37:32.210Z,2.92
2022-10-08T09:38:37.606Z,3.38
2022-10-08T09:39:39.860Z,2.97
2022-10-08T09:41:00.547Z,3.17
2022-10-08T09:42:09.402Z,3.35
2022-10-08T09:43:17.732Z,3.20
2022-10-08T09:44:22.458Z,2.90
2022-10-08T09:45:39.490Z,3.15
2022-10-08T09:46:43.003Z,3.20
2022-10-08T09:47:45.222Z,3.00
2022-10-08T09:48:47.421Z,2.97
2022-10-08T09:50:06.413Z,2.80
2022-10-08T09:51:16.815Z,2.80
2022-10-08T09:52:23.866Z,2.92
2022-10-08T09:53:31.875Z,3.15
2022-10-08T09:54:46.602Z,3.13
2022-10-08T09:55:56.007Z,3.20
2022-10-08T09:57:00.385Z,2.95
2022-10-08T09:58:05.385Z,2.80
2022-10-08T09:59:17.678Z,3.10
2022-10-08T10:00:40.050Z,2.97
2022-10-08T10:01:47.076Z,3.00
2022-10-08T10:02:54.476Z,2.75
2022-10-08T10:03:59.910Z,3.08
2022-10-08T10:05:05.579Z,3.38
2022-10-08T10:06:07.788Z,2.80
2022-10-08T10:07:10.043Z,3.28
2022-10-08T10:08:49.549Z,3.53
2022-10-08T10:09:58.270Z,3.17
2022-10-08T10:11:01.488Z,3.25
2022-10-08T10:12:06.119Z,3.20
2022-10-08T10:13:17.428Z,2.78
2022-10-08T10:14:43.504Z,3.15
2022-10-08T10:16:13.183Z,2.88
2022-10-08T10:17:36.799Z,3.22
2022-10-08T10:18:55.589Z,2.90
2022-10-08T10:20:04.000Z,3.05
2022-10-08T10:21:11.207Z,2.92
2022-10-08T10:22:18.608Z,3.00
2022-10-08T10:23:23.017Z,2.90
2022-10-08T10:24:38.304Z,2.92
2022-10-08T10:25:48.924Z,3.13
2022-10-08T10:26:56.279Z,2.50
2022-10-08T10:28:06.913Z,2.85
2022-10-08T10:29:15.966Z,2.70
2022-10-08T10:30:26.377Z,3.20
2022-10-08T10:31:45.443Z,3.70
2022-10-08T10:33:05.239Z,3.38
2022-10-08T10:34:20.617Z,3.10
2022-10-08T10:35:32.525Z,2.75
2022-10-08T10:36:45.568Z,2.40
2022-10-08T10:38:14.131Z,2.50
2022-10-08T10:39:53.963Z,2.40
2022-10-08T10:41:01.877Z,2.50
2022-10-08T10:42:15.838Z,2.47
2022-10-08T10:43:53.759Z,2.50
2022-10-08T10:45:03.887Z,2.53
2022-10-08T10:46:09.206Z,2.28
2022-10-08T10:47:12.473Z,2.30
2022-10-08T10:48:14.992Z,2.47
2022-10-08T10:49:29.031Z,2.35
2022-10-08T10:50:58.115Z,2.42
2022-10-08T10:52:11.039Z,2.45
2022-10-08T10:53:24.925Z,2.20
2022-10-08T10:54:53.856Z,2.28
2022-10-08T10:56:05.285Z,2.13
2022-10-08T10:57:43.107Z,1.92
2022-10-08T10:59:09.036Z,2.05
2022-10-08T11:00:39.566Z,2.00
2022-10-08T11:01:52.771Z,2.30
2022-10-08T11:03:15.730Z,2.10
2022-10-08T11:04:49.892Z,1.88
2022-10-08T11:06:01.239Z,1.75
2022-10-08T11:07:23.763Z,1.70
2022-10-08T11:08:42.103Z,1.92
2022-10-08T11:10:20.265Z,2.10
2022-10-08T11:11:41.915Z,1.60
2022-10-08T11:12:56.694Z,2.00
2022-10-08T11:14:23.621Z,1.95
2022-10-08T11:15:47.666Z,1.60
2022-10-08T11:17:04.437Z,1.77
2022-10-08T11:18:24.882Z,1.50
2022-10-08T11:19:37.973Z,1.73
2022-10-08T11:20:51.899Z,1.58
2022-10-08T11:22:12.131Z,1.70
2022-10-08T11:23:46.948Z,1.65
2022-10-08T11:25:09.099Z,1.85
2022-10-08T11:26:22.807Z,1.65
2022-10-08T11:27:28.579Z,1.60
2022-10-08T11:28:54.322Z,1.77
2022-10-08T11:30:19.823Z,1.52
2022-10-08T11:31:41.562Z,1.60
2022-10-08T11:32:50.733Z,1.50
2022-10-08T11:33:58.785Z,1.48
2022-10-08T11:35:39.790Z,1.60
2022-10-08T11:37:04.923Z,1.85
2022-10-08T11:38:16.095Z,1.35
2022-10-08T11:39:32.018Z,1.65
2022-10-08T11:40:39.310Z,1.50
2022-10-08T11:41:54.278Z,1.42
2022-10-08T11:43:12.636Z,1.77
2022-10-08T11:44:16.894Z,1.52
2022-10-08T11:45:44.361Z,1.50
2022-10-08T11:46:46.971Z,1.70
2022-10-08T11:47:53.537Z,1.70
2022-10-08T11:49:02.703Z,1.20
2022-10-08T11:50:06.212Z,1.60
2022-10-08T11:51:33.482Z,1.55
2022-10-08T11:52:35.858Z,1.40
2022-10-08T11:53:38.105Z,1.70
2022-10-08T11:54:42.012Z,1.50
2022-10-08T11:55:49.280Z,1.70
2022-10-08T11:57:19.582Z,1.73
2022-10-08T11:58:31.477Z,1.73
2022-10-08T11:59:45.170Z,1.48
2022-10-08T12:00:48.418Z,1.67
2022-10-08T12:01:54.259Z,1.50
2022-10-08T12:02:56.710Z,1.42
2022-10-08T12:04:20.083Z,1.88
2022-10-08T12:05:22.274Z,1.52
2022-10-08T12:06:31.315Z,1.52
2022-10-08T12:07:38.211Z,1.52
2022-10-08T12:08:54.729Z,1.42
2022-10-08T12:10:19.305Z,1.90
2022-10-08T12:11:53.048Z,1.70
2022-10-08T12:12:59.817Z,1.50
2022-10-08T12:14:11.471Z,1.80
2022-10-08T12:15:32.761Z,1.80
2022-10-08T12:16:57.019Z,1.60
2022-10-08T12:18:26.669Z,1.48
2022-10-08T12:19:37.714Z,1.60
2022-10-08T12:20:42.503Z,1.90
2022-10-08T12:21:50.137Z,1.90
2022-10-08T12:23:00.399Z,1.35
2022-10-08T12:24:02.779Z,1.42
2022-10-08T12:25:33.978Z,1.52
2022-10-08T12:26:36.197Z,1.63
2022-10-08T12:27:39.322Z,1.58
2022-10-08T12:28:50.791Z,1.90
2022-10-08T12:30:11.520Z,1.30
2022-10-08T12:31:29.045Z,1.70
2022-10-08T12:32:53.034Z,1.50
2022-10-08T12:34:01.878Z,1.70
2022-10-08T12:35:04.837Z,1.77
2022-10-08T12:36:12.841Z,1.70
2022-10-08T12:37:42.032Z,1.92
2022-10-08T12:38:56.447Z,2.00
2022-10-08T12:40:08.056Z,1.60
2022-10-08T12:41:27.964Z,1.70
2022-10-08T12:42:36.999Z,1.63
2022-10-08T12:43:57.640Z,1.55
2022-10-08T12:45:29.710Z,1.63
2022-10-08T12:46:56.017Z,1.60
2022-10-08T12:48:24.716Z,1.80
2022-10-08T12:49:32.945Z,1.92
2022-10-08T12:51:02.974Z,1.63
2022-10-08T12:52:16.915Z,1.60
2022-10-08T12:53:19.170Z,1.70
2022-10-08T12:54:24.960Z,1.65
2022-10-08T12:55:27.659Z,1.70
2022-10-08T12:56:31.102Z,1.90
2022-10-08T12:57:37.610Z,1.80
2022-10-08T12:58:39.958Z,1.58
2022-10-08T12:59:43.438Z,1.67
2022-10-08T13:00:51.527Z,1.73
2022-10-08T13:01:55.148Z,1.50
2022-10-08T13:03:05.213Z,1.60
2022-10-08T13:04:19.295Z,1.50
2022-10-08T13:05:37.029Z,1.48
2022-10-08T13:06:39.355Z,1.50
2022-10-08T13:07:41.552Z,1.40
2022-10-08T13:08:43.944Z,1.58
2022-10-08T13:09:46.114Z,1.60
2022-10-08T13:10:48.467Z,1.83
2022-10-08T13:11:56.263Z,1.80
2022-10-08T13:13:00.717Z,1.70
2022-10-08T13:14:04.827Z,1.60
2022-10-08T13:15:09.182Z,1.50
2022-10-08T13:16:25.820Z,1.80
2022-10-08T13:17:33.874Z,1.52
2022-10-08T13:18:38.514Z,1.90
2022-10-08T13:19:40.962Z,1.70
2022-10-08T13:20:59.211Z,1.70
2022-10-08T13:22:23.940Z,1.50
2022-10-08T13:23:41.988Z,1.50
2022-10-08T13:24:44.650Z,1.50
2022-10-08T13:25:47.095Z,1.40
2022-10-08T13:26:57.206Z,1.55
2022-10-08T13:28:31.338Z,1.40
2022-10-08T13:29:43.291Z,1.70
2022-10-08T13:30:46.905Z,2.45
2022-10-08T13:32:14.819Z,1.30
2022-10-08T13:33:20.922Z,1.98
2022-10-08T13:34:26.400Z,1.88
2022-10-08T13:35:29.369Z,2.17
2022-10-08T13:36:37.143Z,2.38
2022-10-08T13:37:40.762Z,2.42
2022-10-08T13:38:43.047Z,2.95
2022-10-08T13:39:59.812Z,2.78
2022-10-08T13:41:06.237Z,2.92
2022-10-08T13:42:14.229Z,2.17
2022-10-08T13:43:16.513Z,2.67
2022-10-08T13:44:21.612Z,2.25
2022-10-08T13:45:26.536Z,2.00
2022-10-08T13:46:28.842Z,1.73
2022-10-08T13:47:31.131Z,1.70
2022-10-08T13:48:33.497Z,1.88
2022-10-08T13:49:35.677Z,2.00
2022-10-08T13:50:46.129Z,2.03
2022-10-08T13:51:49.502Z,1.77
2022-10-08T13:52:55.797Z,1.67
2022-10-08T13:53:58.036Z,1.88
2022-10-08T13:55:05.999Z,2.00
2022-10-08T13:56:08.166Z,1.77
2022-10-08T13:57:10.976Z,1.88
2022-10-08T13:58:15.440Z,1.90
2022-10-08T13:59:18.742Z,1.80
2022-10-08T14:00:21.564Z,2.10
2022-10-08T14:01:23.890Z,2.10
2022-10-08T14:02:26.311Z,2.10
2022-10-08T14:03:28.692Z,1.98
2022-10-08T14:04:31.038Z,2.20
2022-10-08T14:05:40.345Z,1.98
2022-10-08T14:06:46.237Z,2.10
2022-10-08T14:07:53.995Z,2.17
2022-10-08T14:08:56.332Z,2.10
2022-10-08T14:10:00.590Z,2.20
2022-10-08T14:11:02.983Z,2.20
2022-10-08T14:12:05.555Z,2.00
2022-10-08T14:13:07.812Z,2.08
2022-10-08T14:14:14.934Z,2.05
2022-10-08T14:15:18.085Z,2.03
2022-10-08T14:16:20.290Z,2.17
2022-10-08T14:17:23.127Z,1.85
2022-10-08T14:18:26.533Z,1.70
2022-10-08T14:19:28.818Z,1.90
2022-10-08T14:20:31.190Z,2.15
2022-10-08T14:21:34.085Z,2.05
2022-10-08T14:22:39.582Z,1.98
2022-10-08T14:23:41.983Z,2.28
2022-10-08T14:24:44.411Z,1.83
2022-10-08T14:25:47.070Z,1.90
2022-10-08T14:26:50.019Z,2.00
2022-10-08T14:27:59.713Z,2.10
2022-10-08T14:29:01.991Z,1.83
2022-10-08T14:30:04.803Z,1.98
2022-10-08T14:31:07.270Z,1.90
2022-10-08T14:32:10.950Z,2.10
2022-10-08T14:33:13.145Z,2.13
2022-10-08T14:34:15.331Z,2.10
2022-10-08T14:35:17.791Z,2.03
2022-10-08T14:36:22.696Z,2.25
2022-10-08T14:37:24.907Z,2.53
2022-10-08T14:38:32.722Z,2.53
2022-10-08T14:39:34.900Z,2.75
2022-10-08T14:40:37.905Z,3.35
2022-10-08T14:41:40.911Z,3.20
2022-10-08T14:42:43.079Z,3.45
2022-10-08T14:43:45.289Z,3.40
2022-10-08T14:44:48.433Z,3.55
2022-10-08T14:45:50.671Z,3.22
2022-10-08T14:46:53.051Z,2.58
2022-10-08T14:47:57.603Z,2.78
2022-10-08T14:48:59.877Z,2.70
2022-10-08T14:50:02.074Z,2.67